createdAt,value
2017-08-23T00:00:52.387Z,0
2017-08-23T00:01:52.390Z,0
2017-08-23T00:02:52.641Z,0
2017-08-23T00:03:52.615Z,0
2017-08-23T00:04:52.600Z,0
2017-08-23T00:05:52.271Z,0
2017-08-23T00:06:52.785Z,0
2017-08-23T00:07:52.525Z,0
2017-08-23T00:08:52.569Z,0
2017-08-23T00:09:52.185Z,0
2017-08-23T00:10:52.169Z,0
2017-08-23T00:11:52.445Z,0
2017-08-23T00:12:52.145Z,0
2017-08-23T00:13:52.318Z,0
2017-08-23T00:14:52.390Z,0
2017-08-23T00:15:52.355Z,0
2017-08-23T00:16:52.348Z,0
2017-08-23T00:17:52.320Z,0
2017-08-23T00:18:52.290Z,0
2017-08-23T00:19:52.295Z,0
2017-08-23T00:20:52.541Z,0
2017-08-23T00:21:52.226Z,0
2017-08-23T00:22:52.227Z,0
2017-08-23T00:23:52.189Z,0
2017-08-23T00:24:52.152Z,0
2017-08-23T00:25:52.139Z,0
2017-08-23T00:26:51.820Z,0
2017-08-23T00:27:51.496Z,0
2017-08-23T00:28:52.079Z,0
2017-08-23T00:29:52.056Z,0
2017-08-23T00:30:52.025Z,0
2017-08-23T00:31:52.065Z,0
2017-08-23T00:32:51.986Z,0
2017-08-23T00:33:52.178Z,0
2017-08-23T00:34:51.940Z,0
2017-08-23T00:35:51.926Z,0
2017-08-23T00:36:51.915Z,0
2017-08-23T00:37:51.876Z,0
2017-08-23T00:38:51.858Z,0
2017-08-23T00:39:51.849Z,0
2017-08-23T00:40:51.834Z,0
2017-08-23T00:41:51.480Z,0
2017-08-23T00:42:51.180Z,0
2017-08-23T00:43:51.757Z,0
2017-08-23T00:44:51.730Z,0
2017-08-23T00:45:51.704Z,0
2017-08-23T00:46:51.691Z,0
2017-08-23T00:47:51.669Z,0
2017-08-23T00:48:51.641Z,0
2017-08-23T00:49:51.615Z,0
2017-08-23T00:50:51.605Z,0
2017-08-23T00:51:51.582Z,0
2017-08-23T00:52:51.553Z,0
2017-08-23T00:53:51.579Z,0
2017-08-23T00:54:51.512Z,0
2017-08-23T00:55:51.496Z,0
2017-08-23T00:56:51.463Z,0
2017-08-23T00:57:51.506Z,0
2017-08-23T00:58:51.427Z,0
2017-08-23T00:59:51.403Z,0
2017-08-23T01:00:51.382Z,0
2017-08-23T01:02:51.342Z,0
2017-08-23T01:03:51.004Z,0
2017-08-23T01:04:50.983Z,0
2017-08-23T01:05:51.017Z,0
2017-08-23T01:06:51.259Z,0
2017-08-23T01:07:51.223Z,0
2017-08-23T01:08:50.606Z,0
2017-08-23T01:09:51.187Z,0
2017-08-23T01:10:51.170Z,0
2017-08-23T01:11:51.146Z,0
2017-08-23T01:12:51.435Z,0
2017-08-23T01:13:51.096Z,0
2017-08-23T01:14:52.669Z,0
2017-08-23T01:15:51.106Z,0
2017-08-23T01:16:51.016Z,0
2017-08-23T01:17:51.011Z,0
2017-08-23T01:18:50.988Z,0
2017-08-23T01:19:50.957Z,0
2017-08-23T01:20:50.951Z,0
2017-08-23T01:22:05.539Z,0
2017-08-23T01:22:50.892Z,0
2017-08-23T01:23:50.586Z,0
2017-08-23T01:24:50.881Z,0
2017-08-23T01:25:51.827Z,0
2017-08-23T01:26:50.828Z,0
2017-08-23T01:27:50.247Z,0
2017-08-23T01:28:50.765Z,0
2017-08-23T01:29:50.794Z,0
2017-08-23T01:30:50.723Z,0
2017-08-23T01:31:50.404Z,0
2017-08-23T01:32:50.679Z,0
2017-08-23T01:33:50.658Z,0
2017-08-23T01:34:50.886Z,0
2017-08-23T01:35:50.614Z,0
2017-08-23T01:36:50.294Z,0
2017-08-23T01:38:50.541Z,0
2017-08-23T01:39:50.510Z,0
2017-08-23T01:40:50.509Z,0
2017-08-23T01:41:50.484Z,0
2017-08-23T01:42:50.469Z,0
2017-08-23T01:43:50.490Z,0
2017-08-23T01:44:50.469Z,0
2017-08-23T01:45:50.416Z,0
2017-08-23T01:46:50.078Z,0
2017-08-23T01:47:50.052Z,0
2017-08-23T01:48:50.327Z,0
2017-08-23T01:49:50.305Z,0
2017-08-23T01:50:50.283Z,0
2017-08-23T01:51:50.320Z,0
2017-08-23T01:52:50.230Z,0
2017-08-23T01:53:50.225Z,0
2017-08-23T01:54:49.893Z,0
2017-08-23T01:55:49.875Z,0
2017-08-23T01:56:49.850Z,0
2017-08-23T01:57:50.135Z,0
2017-08-23T01:58:50.119Z,0
2017-08-23T01:59:50.094Z,0
2017-08-23T02:00:49.467Z,0
2017-08-23T02:01:50.079Z,0
2017-08-23T02:02:50.036Z,0
2017-08-23T02:03:50.003Z,0
2017-08-23T02:04:49.975Z,0
2017-08-23T02:05:49.955Z,0
2017-08-23T02:06:49.934Z,0
2017-08-23T02:07:49.910Z,0
2017-08-23T02:08:49.891Z,0
2017-08-23T02:09:49.912Z,0
2017-08-23T02:10:49.841Z,0
2017-08-23T02:11:49.827Z,0
2017-08-23T02:12:50.080Z,0
2017-08-23T02:13:49.773Z,0
2017-08-23T02:14:49.766Z,0
2017-08-23T02:15:49.730Z,0
2017-08-23T02:16:49.705Z,0
2017-08-23T02:17:49.688Z,0
2017-08-23T02:18:49.688Z,0
2017-08-23T02:19:49.640Z,0
2017-08-23T02:20:49.680Z,0
2017-08-23T02:21:49.601Z,0
2017-08-23T02:22:49.585Z,0
2017-08-23T02:23:49.553Z,0
2017-08-23T02:24:49.597Z,0
2017-08-23T02:25:49.511Z,0
2017-08-23T02:26:49.497Z,0
2017-08-23T02:27:49.161Z,0
2017-08-23T02:28:49.453Z,0
2017-08-23T02:29:49.482Z,0
2017-08-23T02:30:49.399Z,0
2017-08-23T02:31:49.393Z,0
2017-08-23T02:32:49.366Z,0
2017-08-23T02:33:49.387Z,0
2017-08-23T02:34:49.371Z,0
2017-08-23T02:35:49.307Z,0
2017-08-23T02:36:49.299Z,0
2017-08-23T02:37:49.249Z,0
2017-08-23T02:38:49.233Z,0
2017-08-23T02:39:48.907Z,0
2017-08-23T02:40:48.888Z,0
2017-08-23T02:41:49.160Z,0
2017-08-23T02:42:49.143Z,0
2017-08-23T02:43:49.132Z,0
2017-08-23T02:44:49.146Z,0
2017-08-23T02:45:49.070Z,0
2017-08-23T02:46:49.311Z,0
2017-08-23T02:47:49.044Z,0
2017-08-23T02:48:49.011Z,0
2017-08-23T02:49:48.695Z,0
2017-08-23T02:50:48.961Z,0
2017-08-23T02:51:48.941Z,0
2017-08-23T02:52:48.930Z,0
2017-08-23T02:53:48.913Z,0
2017-08-23T02:54:48.881Z,0
2017-08-23T02:55:48.898Z,0
2017-08-23T02:56:48.828Z,0
2017-08-23T02:57:48.825Z,0
2017-08-23T02:58:48.892Z,0
2017-08-23T02:59:48.825Z,0
2017-08-23T03:00:48.452Z,0
2017-08-23T03:01:48.721Z,0
2017-08-23T03:02:48.701Z,0
2017-08-23T03:03:48.680Z,0
2017-08-23T03:04:48.054Z,0
2017-08-23T03:05:48.648Z,0
2017-08-23T03:06:48.616Z,0
2017-08-23T03:07:48.644Z,0
2017-08-23T03:08:48.264Z,0
2017-08-23T03:09:48.541Z,0
2017-08-23T03:10:48.539Z,0
2017-08-23T03:11:48.506Z,0
2017-08-23T03:12:48.489Z,0
2017-08-23T03:13:48.464Z,0
2017-08-23T03:14:48.139Z,0
2017-08-23T03:15:48.412Z,0
2017-08-23T03:16:48.400Z,0
2017-08-23T03:17:48.361Z,0
2017-08-23T03:18:48.354Z,0
2017-08-23T03:19:48.370Z,0
2017-08-23T03:20:48.302Z,0
2017-08-23T03:21:48.295Z,0
2017-08-23T03:22:48.263Z,0
2017-08-23T03:23:48.240Z,0
2017-08-23T03:24:48.209Z,0
2017-08-23T03:25:47.905Z,0
2017-08-23T03:26:47.880Z,0
2017-08-23T03:27:48.150Z,0
2017-08-23T03:28:48.130Z,0
2017-08-23T03:29:48.098Z,0
2017-08-23T03:30:48.095Z,0
2017-08-23T03:31:47.760Z,0
2017-08-23T03:32:48.043Z,0
2017-08-23T03:33:47.716Z,0
2017-08-23T03:34:47.999Z,0
2017-08-23T03:35:47.979Z,0
2017-08-23T03:36:47.940Z,0
2017-08-23T03:37:47.927Z,0
2017-08-23T03:38:47.965Z,0
2017-08-23T03:39:47.883Z,0
2017-08-23T03:40:47.909Z,0
2017-08-23T03:41:47.836Z,0
2017-08-23T03:42:47.821Z,0
2017-08-23T03:43:47.844Z,0
2017-08-23T03:44:47.771Z,0
2017-08-23T03:45:47.760Z,0
2017-08-23T03:46:47.760Z,0
2017-08-23T03:47:47.702Z,0
2017-08-23T03:48:47.738Z,0
2017-08-23T03:49:47.719Z,0
2017-08-23T03:50:47.663Z,0
2017-08-23T03:51:47.612Z,0
2017-08-23T03:52:47.593Z,0
2017-08-23T03:53:47.300Z,0
2017-08-23T03:54:47.557Z,0
2017-08-23T03:55:47.543Z,0
2017-08-23T03:56:47.507Z,0
2017-08-23T03:57:47.487Z,0
2017-08-23T03:58:47.513Z,0
2017-08-23T03:59:47.438Z,0
2017-08-23T04:00:47.416Z,0
2017-08-23T04:01:47.094Z,0
2017-08-23T04:02:47.423Z,0
2017-08-23T04:03:47.063Z,0
2017-08-23T04:04:47.325Z,0
2017-08-23T04:05:47.315Z,0
2017-08-23T04:06:47.290Z,0
2017-08-23T04:07:47.254Z,0
2017-08-23T04:08:47.247Z,0
2017-08-23T04:09:47.222Z,0
2017-08-23T04:10:47.203Z,0
2017-08-23T04:11:47.187Z,0
2017-08-23T04:12:47.159Z,0
2017-08-23T04:13:46.842Z,0
2017-08-23T04:14:47.106Z,0
2017-08-23T04:15:46.785Z,0
2017-08-23T04:16:47.135Z,0
2017-08-23T04:17:47.043Z,0
2017-08-23T04:18:47.040Z,0
2017-08-23T04:19:46.999Z,0
2017-08-23T04:20:46.984Z,5
2017-08-23T04:21:46.952Z,5
2017-08-23T04:22:46.937Z,5
2017-08-23T04:23:46.913Z,5
2017-08-23T04:24:46.887Z,5
2017-08-23T04:25:46.875Z,5
2017-08-23T04:26:46.587Z,5
2017-08-23T04:27:47.030Z,5
2017-08-23T04:28:46.797Z,10
2017-08-23T04:29:46.879Z,10
2017-08-23T04:30:46.762Z,10
2017-08-23T04:31:46.134Z,10
2017-08-23T04:32:46.406Z,15
2017-08-23T04:33:46.685Z,15
2017-08-23T04:34:46.679Z,20
2017-08-23T04:35:46.642Z,20
2017-08-23T04:36:46.328Z,20
2017-08-23T04:37:46.646Z,25
2017-08-23T04:38:46.635Z,25
2017-08-23T04:39:46.553Z,30
2017-08-23T04:40:46.581Z,30
2017-08-23T04:41:46.519Z,35
2017-08-23T04:42:46.484Z,35
2017-08-23T04:43:46.463Z,40
2017-08-23T04:44:46.150Z,40
2017-08-23T04:45:46.422Z,40
2017-08-23T04:46:46.399Z,45
2017-08-23T04:47:46.373Z,50
2017-08-23T04:48:46.365Z,55
2017-08-23T04:49:46.390Z,55
2017-08-23T04:50:46.357Z,60
2017-08-23T04:51:46.293Z,65
2017-08-23T04:52:46.270Z,70
2017-08-23T04:53:46.239Z,70
2017-08-23T04:54:46.272Z,75
2017-08-23T04:55:46.210Z,75
2017-08-23T04:56:46.185Z,80
2017-08-23T04:57:46.164Z,85
2017-08-23T04:58:45.832Z,90
2017-08-23T04:59:46.107Z,90
2017-08-23T05:00:46.100Z,95
2017-08-23T05:01:46.069Z,100
2017-08-23T05:02:46.056Z,100
2017-08-23T05:03:46.075Z,105
2017-08-23T05:04:45.704Z,110
2017-08-23T05:05:45.976Z,115
2017-08-23T05:06:45.958Z,120
2017-08-23T05:07:45.932Z,125
2017-08-23T05:08:45.918Z,130
2017-08-23T05:09:45.895Z,130
2017-08-23T05:10:45.876Z,135
2017-08-23T05:11:45.851Z,140
2017-08-23T05:12:45.912Z,145
2017-08-23T05:13:45.510Z,150
2017-08-23T05:14:45.787Z,155
2017-08-23T05:15:45.466Z,160
2017-08-23T05:16:45.749Z,160
2017-08-23T05:17:45.721Z,165
2017-08-23T05:18:45.692Z,170
2017-08-23T05:19:45.680Z,175
2017-08-23T05:20:45.658Z,180
2017-08-23T05:21:45.637Z,185
2017-08-23T05:22:45.656Z,190
2017-08-23T05:23:45.583Z,195
2017-08-23T05:24:45.573Z,195
2017-08-23T05:25:45.257Z,195
2017-08-23T05:26:45.227Z,200
2017-08-23T05:27:45.553Z,205
2017-08-23T05:28:45.484Z,215
2017-08-23T05:29:45.193Z,220
2017-08-23T05:30:45.449Z,220
2017-08-23T05:31:45.440Z,225
2017-08-23T05:32:45.409Z,230
2017-08-23T05:33:45.387Z,235
2017-08-23T05:34:45.357Z,245
2017-08-23T05:35:45.333Z,240
2017-08-23T05:36:45.021Z,245
2017-08-23T05:37:45.303Z,250
2017-08-23T05:38:45.274Z,255
2017-08-23T05:39:45.264Z,260
2017-08-23T05:40:45.239Z,260
2017-08-23T05:41:45.243Z,265
2017-08-23T05:42:45.263Z,270
2017-08-23T05:43:45.426Z,275
2017-08-23T05:44:45.156Z,280
2017-08-23T05:45:45.146Z,285
2017-08-23T05:46:45.136Z,290
2017-08-23T05:47:45.095Z,300
2017-08-23T05:48:45.099Z,300
2017-08-23T05:49:45.070Z,305
2017-08-23T05:50:45.039Z,310
2017-08-23T05:51:45.030Z,310
2017-08-23T05:52:44.429Z,315
2017-08-23T05:53:44.980Z,330
2017-08-23T05:54:44.963Z,325
2017-08-23T05:55:44.934Z,330
2017-08-23T05:56:44.919Z,330
2017-08-23T05:57:44.910Z,335
2017-08-23T05:58:44.940Z,340
2017-08-23T05:59:44.569Z,350
2017-08-23T06:00:44.892Z,355
2017-08-23T06:01:44.829Z,360
2017-08-23T06:02:44.799Z,365
2017-08-23T06:03:44.782Z,370
2017-08-23T06:04:44.472Z,370
2017-08-23T06:05:44.741Z,380
2017-08-23T06:06:44.726Z,380
2017-08-23T06:07:44.706Z,385
2017-08-23T06:08:44.701Z,385
2017-08-23T06:09:44.668Z,390
2017-08-23T06:10:44.647Z,400
2017-08-23T06:11:44.626Z,405
2017-08-23T06:12:44.607Z,410
2017-08-23T06:13:44.583Z,410
2017-08-23T06:14:44.586Z,415
2017-08-23T06:15:44.248Z,410
2017-08-23T06:16:44.533Z,430
2017-08-23T06:17:44.520Z,435
2017-08-23T06:18:44.497Z,445
2017-08-23T06:19:44.481Z,450
2017-08-23T06:20:44.450Z,450
2017-08-23T06:21:44.442Z,465
2017-08-23T06:22:44.428Z,465
2017-08-23T06:23:44.420Z,470
2017-08-23T06:24:44.131Z,480
2017-08-23T06:25:44.375Z,485
2017-08-23T06:26:44.362Z,490
2017-08-23T06:27:44.346Z,500
2017-08-23T06:28:44.383Z,505
2017-08-23T06:29:44.300Z,505
2017-08-23T06:30:44.335Z,510
2017-08-23T06:31:44.375Z,515
2017-08-23T06:32:44.237Z,520
2017-08-23T06:33:44.231Z,520
2017-08-23T06:34:44.211Z,525
2017-08-23T06:35:44.193Z,530
2017-08-23T06:36:44.185Z,530
2017-08-23T06:37:44.160Z,535
2017-08-23T06:38:44.137Z,540
2017-08-23T06:39:44.116Z,565
2017-08-23T06:40:44.104Z,550
2017-08-23T06:41:44.084Z,560
2017-08-23T06:42:44.065Z,560
2017-08-23T06:43:44.065Z,565
2017-08-23T06:44:44.044Z,570
2017-08-23T06:45:43.722Z,575
2017-08-23T06:46:44.007Z,575
2017-08-23T06:47:44.003Z,585
2017-08-23T06:48:43.972Z,590
2017-08-23T06:49:43.951Z,600
2017-08-23T06:50:43.936Z,605
2017-08-23T06:51:43.981Z,610
2017-08-23T06:52:44.156Z,630
2017-08-23T06:53:43.886Z,630
2017-08-23T06:54:43.875Z,645
2017-08-23T06:55:43.920Z,655
2017-08-23T06:56:43.854Z,665
2017-08-23T06:57:43.832Z,670
2017-08-23T06:58:43.508Z,675
2017-08-23T06:59:43.805Z,675
2017-08-23T07:00:43.493Z,680
2017-08-23T07:01:43.262Z,685
2017-08-23T07:02:43.824Z,685
2017-08-23T07:03:43.738Z,690
2017-08-23T07:04:43.417Z,695
2017-08-23T07:05:43.707Z,700
2017-08-23T07:06:43.696Z,715
2017-08-23T07:07:43.676Z,710
2017-08-23T07:08:43.730Z,715
2017-08-23T07:09:43.646Z,720
2017-08-23T07:10:43.640Z,730
2017-08-23T07:11:43.625Z,735
2017-08-23T07:12:43.620Z,745
2017-08-23T07:13:43.591Z,760
2017-08-23T07:14:43.593Z,780
2017-08-23T07:15:43.574Z,790
2017-08-23T07:16:43.597Z,795
2017-08-23T07:17:43.553Z,800
2017-08-23T07:18:43.559Z,800
2017-08-23T07:19:43.521Z,800
2017-08-23T07:20:43.500Z,815
2017-08-23T07:21:43.236Z,805
2017-08-23T07:22:43.168Z,810
2017-08-23T07:23:43.157Z,825
2017-08-23T07:24:43.149Z,825
2017-08-23T07:25:43.428Z,840
2017-08-23T07:26:43.127Z,850
2017-08-23T07:27:43.420Z,860
2017-08-23T07:28:42.787Z,870
2017-08-23T07:29:43.086Z,880
2017-08-23T07:30:43.380Z,890
2017-08-23T07:31:43.360Z,900
2017-08-23T07:32:43.339Z,900
2017-08-23T07:33:43.027Z,910
2017-08-23T07:34:43.313Z,925
2017-08-23T07:35:43.306Z,935
2017-08-23T07:36:43.364Z,935
2017-08-23T07:37:43.278Z,935
2017-08-23T07:38:43.268Z,945
2017-08-23T07:39:43.245Z,955
2017-08-23T07:40:43.246Z,965
2017-08-23T07:41:43.224Z,985
2017-08-23T07:42:43.215Z,990
2017-08-23T07:43:43.250Z,1005
2017-08-23T07:44:43.200Z,1025
2017-08-23T07:45:42.889Z,1055
2017-08-23T07:46:43.152Z,1100
2017-08-23T07:47:43.159Z,1155
2017-08-23T07:48:43.148Z,1180
2017-08-23T07:49:43.187Z,1195
2017-08-23T07:50:43.149Z,1205
2017-08-23T07:51:42.803Z,1215
2017-08-23T07:52:43.133Z,1230
2017-08-23T07:53:42.788Z,1240
2017-08-23T07:54:42.562Z,1250
2017-08-23T07:55:43.060Z,1250
2017-08-23T07:56:42.756Z,1260
2017-08-23T07:57:43.047Z,1270
2017-08-23T07:58:43.022Z,1275
2017-08-23T07:59:42.714Z,1280
2017-08-23T08:00:43.058Z,1295
2017-08-23T08:01:42.993Z,1310
2017-08-23T08:02:42.977Z,1320
2017-08-23T08:03:42.985Z,1350
2017-08-23T08:04:42.972Z,1320
2017-08-23T08:05:42.948Z,1310
2017-08-23T08:06:42.356Z,1325
2017-08-23T08:07:42.941Z,1315
2017-08-23T08:08:42.621Z,1325
2017-08-23T08:09:42.364Z,1335
2017-08-23T08:10:42.897Z,1340
2017-08-23T08:11:42.886Z,1385
2017-08-23T08:12:42.577Z,1410
2017-08-23T08:13:42.970Z,1425
2017-08-23T08:14:42.937Z,1420
2017-08-23T08:15:42.848Z,1425
2017-08-23T08:16:42.842Z,1425
2017-08-23T08:17:42.847Z,1430
2017-08-23T08:18:42.813Z,1450
2017-08-23T08:19:42.812Z,1465
2017-08-23T08:20:42.828Z,1480
2017-08-23T08:21:42.796Z,1495
2017-08-23T08:22:42.784Z,1505
2017-08-23T08:23:42.771Z,1500
2017-08-23T08:24:42.467Z,1505
2017-08-23T08:25:42.741Z,1510
2017-08-23T08:26:42.747Z,1525
2017-08-23T08:27:42.740Z,1530
2017-08-23T08:28:42.428Z,1540
2017-08-23T08:29:42.415Z,1540
2017-08-23T08:30:42.395Z,1555
2017-08-23T08:31:42.747Z,1550
2017-08-23T08:32:42.683Z,1545
2017-08-23T08:33:42.670Z,1500
2017-08-23T08:34:42.663Z,1415
2017-08-23T08:35:42.698Z,1355
2017-08-23T08:36:42.640Z,970
2017-08-23T08:37:42.644Z,1100
2017-08-23T08:38:42.635Z,1210
2017-08-23T08:39:42.616Z,1380
2017-08-23T08:40:42.649Z,1385
2017-08-23T08:41:42.589Z,1390
2017-08-23T08:42:42.005Z,1400
2017-08-23T08:43:42.289Z,1405
2017-08-23T08:44:42.580Z,1420
2017-08-23T08:45:42.259Z,1410
2017-08-23T08:46:42.583Z,1415
2017-08-23T08:47:42.540Z,1420
2017-08-23T08:48:42.530Z,1420
2017-08-23T08:49:42.520Z,1450
2017-08-23T08:50:41.957Z,1440
2017-08-23T08:51:42.501Z,1540
2017-08-23T08:52:42.498Z,1705
2017-08-23T08:53:42.484Z,1775
2017-08-23T08:54:42.477Z,1770
2017-08-23T08:55:42.474Z,1785
2017-08-23T08:56:42.154Z,1755
2017-08-23T08:57:42.433Z,1470
2017-08-23T08:58:42.441Z,1520
2017-08-23T08:59:42.439Z,1465
2017-08-23T09:00:42.124Z,1385
2017-08-23T09:01:42.402Z,1375
2017-08-23T09:02:42.452Z,1380
2017-08-23T09:03:42.177Z,1395
2017-08-23T09:04:42.389Z,1290
2017-08-23T09:05:42.066Z,1355
2017-08-23T09:06:42.375Z,1075
2017-08-23T09:07:42.366Z,1080
2017-08-23T09:08:42.049Z,1140
2017-08-23T09:09:42.394Z,1290
2017-08-23T09:10:42.327Z,1405
2017-08-23T09:11:42.633Z,1400
2017-08-23T09:12:42.003Z,1350
2017-08-23T09:13:42.005Z,1315
2017-08-23T09:14:41.989Z,1330
2017-08-23T09:15:41.986Z,1335
2017-08-23T09:16:42.275Z,1300
2017-08-23T09:17:42.266Z,1350
2017-08-23T09:18:42.263Z,1385
2017-08-23T09:19:41.967Z,1430
2017-08-23T09:20:42.234Z,1440
2017-08-23T09:21:42.219Z,1500
2017-08-23T09:22:41.973Z,1395
2017-08-23T09:23:41.912Z,1355
2017-08-23T09:24:42.205Z,1445
2017-08-23T09:25:41.884Z,1510
2017-08-23T09:26:42.177Z,1535
2017-08-23T09:27:42.178Z,1520
2017-08-23T09:28:42.164Z,1475
2017-08-23T09:29:42.158Z,1495
2017-08-23T09:30:42.144Z,1500
2017-08-23T09:31:41.900Z,1535
2017-08-23T09:32:41.825Z,1545
2017-08-23T09:33:41.818Z,1575
2017-08-23T09:34:41.499Z,1600
2017-08-23T09:35:42.098Z,1565
2017-08-23T09:36:42.088Z,1560
2017-08-23T09:37:42.081Z,1585
2017-08-23T09:38:42.069Z,1565
2017-08-23T09:39:42.074Z,1565
2017-08-23T09:40:42.052Z,1560
2017-08-23T09:41:41.750Z,1425
2017-08-23T09:42:42.093Z,1430
2017-08-23T09:43:42.028Z,1425
2017-08-23T09:44:42.017Z,1455
2017-08-23T09:45:42.027Z,1465
2017-08-23T09:46:42.001Z,1470
2017-08-23T09:47:41.694Z,1565
2017-08-23T09:48:42.002Z,1530
2017-08-23T09:49:41.995Z,1500
2017-08-23T09:50:41.965Z,1475
2017-08-23T09:51:41.962Z,1535
2017-08-23T09:52:41.678Z,1540
2017-08-23T09:53:41.647Z,1520
2017-08-23T09:54:41.929Z,1495
2017-08-23T09:55:41.926Z,1450
2017-08-23T09:56:41.354Z,1430
2017-08-23T09:57:41.905Z,1520
2017-08-23T09:58:41.942Z,1430
2017-08-23T09:59:41.922Z,1405
2017-08-23T10:00:41.570Z,1445
2017-08-23T10:01:41.564Z,1510
2017-08-23T10:02:41.861Z,1550
2017-08-23T10:03:41.860Z,1580
2017-08-23T10:04:41.836Z,1635
2017-08-23T10:05:41.830Z,1610
2017-08-23T10:06:41.826Z,1540
2017-08-23T10:07:41.815Z,1580
2017-08-23T10:08:41.824Z,1540
2017-08-23T10:09:41.846Z,1610
2017-08-23T10:10:41.832Z,1605
2017-08-23T10:11:41.484Z,1570
2017-08-23T10:12:41.473Z,1360
2017-08-23T10:13:41.756Z,1245
2017-08-23T10:14:41.774Z,1385
2017-08-23T10:15:41.743Z,1490
2017-08-23T10:16:41.426Z,1465
2017-08-23T10:17:41.704Z,1360
2017-08-23T10:18:41.408Z,1350
2017-08-23T10:19:41.399Z,1475
2017-08-23T10:20:41.686Z,1520
2017-08-23T10:21:41.372Z,1595
2017-08-23T10:22:41.667Z,1695
2017-08-23T10:23:41.668Z,1725
2017-08-23T10:24:41.380Z,1680
2017-08-23T10:25:41.633Z,1645
2017-08-23T10:26:41.320Z,1635
2017-08-23T10:27:41.634Z,1605
2017-08-23T10:28:41.602Z,1630
2017-08-23T10:29:42.108Z,1655
2017-08-23T10:30:41.295Z,1655
2017-08-23T10:31:41.585Z,1680
2017-08-23T10:32:41.319Z,1515
2017-08-23T10:33:41.576Z,825
2017-08-23T10:34:41.562Z,300
2017-08-23T10:35:41.593Z,290
2017-08-23T10:36:41.226Z,285
2017-08-23T10:37:41.529Z,280
2017-08-23T10:38:41.509Z,275
2017-08-23T10:39:41.200Z,275
2017-08-23T10:40:40.903Z,270
2017-08-23T10:41:41.244Z,270
2017-08-23T10:42:41.189Z,270
2017-08-23T10:43:41.458Z,265
2017-08-23T10:44:41.138Z,260
2017-08-23T10:45:41.441Z,255
2017-08-23T10:46:41.420Z,255
2017-08-23T10:47:41.402Z,250
2017-08-23T10:48:41.389Z,255
2017-08-23T10:49:41.406Z,250
2017-08-23T10:50:41.079Z,250
2017-08-23T10:51:41.366Z,250
2017-08-23T10:52:41.324Z,245
2017-08-23T10:53:41.311Z,240
2017-08-23T10:54:41.300Z,240
2017-08-23T10:55:41.286Z,240
2017-08-23T10:56:41.261Z,240
2017-08-23T10:57:41.246Z,240
2017-08-23T10:58:41.239Z,240
2017-08-23T10:59:40.930Z,240
2017-08-23T11:00:40.918Z,240
2017-08-23T11:01:41.234Z,240
2017-08-23T11:02:41.226Z,240
2017-08-23T11:03:41.154Z,240
2017-08-23T11:04:41.149Z,240
2017-08-23T11:05:41.134Z,240
2017-08-23T11:06:41.119Z,240
2017-08-23T11:07:41.088Z,240
2017-08-23T11:08:41.073Z,240
2017-08-23T11:09:41.014Z,240
2017-08-23T11:10:41.053Z,240
2017-08-23T11:11:41.015Z,240
2017-08-23T11:12:41.006Z,240
2017-08-23T11:13:40.986Z,240
2017-08-23T11:14:40.977Z,240
2017-08-23T11:15:40.967Z,235
2017-08-23T11:16:40.947Z,235
2017-08-23T11:17:40.680Z,240
2017-08-23T11:18:40.911Z,240
2017-08-23T11:19:40.934Z,240
2017-08-23T11:20:40.876Z,245
2017-08-23T11:21:40.567Z,245
2017-08-23T11:22:40.848Z,245
2017-08-23T11:23:41.021Z,245
2017-08-23T11:24:40.500Z,245
2017-08-23T11:25:40.481Z,245
2017-08-23T11:26:40.811Z,245
2017-08-23T11:27:40.480Z,245
2017-08-23T11:28:40.729Z,250
2017-08-23T11:29:40.708Z,250
2017-08-23T11:30:40.618Z,245
2017-08-23T11:31:40.379Z,245
2017-08-23T11:32:40.658Z,245
2017-08-23T11:33:40.642Z,240
2017-08-23T11:34:40.331Z,240
2017-08-23T11:35:40.300Z,240
2017-08-23T11:36:40.599Z,240
2017-08-23T11:37:40.584Z,245
2017-08-23T11:38:40.604Z,240
2017-08-23T11:39:40.540Z,240
2017-08-23T11:40:40.576Z,240
2017-08-23T11:41:40.226Z,240
2017-08-23T11:42:40.499Z,235
2017-08-23T11:43:40.173Z,235
2017-08-23T11:44:40.448Z,235
2017-08-23T11:45:40.491Z,240
2017-08-23T11:46:40.411Z,235
2017-08-23T11:47:40.454Z,235
2017-08-23T11:48:40.391Z,235
2017-08-23T11:49:40.364Z,240
2017-08-23T11:50:40.356Z,240
2017-08-23T11:51:40.374Z,235
2017-08-23T11:52:40.309Z,235
2017-08-23T11:53:40.296Z,230
2017-08-23T11:54:40.274Z,230
2017-08-23T11:55:40.268Z,230
2017-08-23T11:56:40.287Z,230
2017-08-23T11:57:39.921Z,230
2017-08-23T11:58:40.294Z,235
2017-08-23T11:59:39.910Z,225
2017-08-23T12:00:40.221Z,225
2017-08-23T12:01:40.158Z,225
2017-08-23T12:02:40.190Z,225
2017-08-23T12:03:40.190Z,225
2017-08-23T12:04:40.099Z,225
2017-08-23T12:05:40.081Z,225
2017-08-23T12:06:39.766Z,225
2017-08-23T12:07:40.239Z,225
2017-08-23T12:08:39.725Z,225
2017-08-23T12:09:39.413Z,225
2017-08-23T12:10:40.010Z,225
2017-08-23T12:11:39.679Z,230
2017-08-23T12:12:39.060Z,230
2017-08-23T12:13:39.339Z,230
2017-08-23T12:14:39.948Z,230
2017-08-23T12:15:39.920Z,230
2017-08-23T12:16:39.880Z,235
2017-08-23T12:17:39.575Z,230
2017-08-23T12:18:39.855Z,230
2017-08-23T12:19:39.860Z,230
2017-08-23T12:20:39.831Z,230
2017-08-23T12:21:39.846Z,230
2017-08-23T12:22:39.482Z,230
2017-08-23T12:23:39.776Z,225
2017-08-23T12:24:39.759Z,225
2017-08-23T12:25:39.449Z,225
2017-08-23T12:26:39.728Z,230
2017-08-23T12:27:39.745Z,230
2017-08-23T12:28:39.706Z,230
2017-08-23T12:29:39.697Z,225
2017-08-23T12:30:39.706Z,225
2017-08-23T12:31:39.629Z,225
2017-08-23T12:32:39.619Z,220
2017-08-23T12:33:39.614Z,215
2017-08-23T12:34:39.586Z,220
2017-08-23T12:35:39.588Z,225
2017-08-23T12:36:39.234Z,225
2017-08-23T12:37:39.555Z,235
2017-08-23T12:38:39.511Z,240
2017-08-23T12:39:39.549Z,240
2017-08-23T12:40:39.473Z,240
2017-08-23T12:41:39.152Z,240
2017-08-23T12:42:39.487Z,245
2017-08-23T12:43:39.438Z,255
2017-08-23T12:44:39.432Z,255
2017-08-23T12:45:39.395Z,260
2017-08-23T12:46:39.063Z,265
2017-08-23T12:47:39.352Z,275
2017-08-23T12:48:39.343Z,280
2017-08-23T12:49:39.032Z,280
2017-08-23T12:50:39.303Z,280
2017-08-23T12:51:39.281Z,270
2017-08-23T12:52:38.964Z,270
2017-08-23T12:53:39.259Z,265
2017-08-23T12:54:39.230Z,260
2017-08-23T12:55:39.208Z,255
2017-08-23T12:56:39.193Z,255
2017-08-23T12:57:38.885Z,250
2017-08-23T12:58:38.861Z,245
2017-08-23T12:59:39.186Z,240
2017-08-23T13:00:38.868Z,240
2017-08-23T13:01:39.109Z,235
2017-08-23T13:02:39.092Z,230
2017-08-23T13:03:39.293Z,230
2017-08-23T13:04:38.758Z,230
2017-08-23T13:05:38.750Z,235
2017-08-23T13:06:39.046Z,230
2017-08-23T13:07:38.708Z,225
2017-08-23T13:08:38.991Z,230
2017-08-23T13:09:38.661Z,235
2017-08-23T13:10:38.956Z,240
2017-08-23T13:11:38.953Z,240
2017-08-23T13:12:38.940Z,245
2017-08-23T13:13:38.355Z,240
2017-08-23T13:14:38.585Z,250
2017-08-23T13:15:38.568Z,250
2017-08-23T13:16:38.861Z,245
2017-08-23T13:17:38.840Z,245
2017-08-23T13:18:38.813Z,240
2017-08-23T13:19:38.826Z,235
2017-08-23T13:20:38.843Z,230
2017-08-23T13:21:38.477Z,230
2017-08-23T13:22:38.762Z,225
2017-08-23T13:23:38.780Z,225
2017-08-23T13:24:38.445Z,220
2017-08-23T13:25:38.700Z,220
2017-08-23T13:26:38.681Z,220
2017-08-23T13:27:38.682Z,220
2017-08-23T13:29:38.334Z,225
2017-08-23T13:30:38.618Z,225
2017-08-23T13:31:38.603Z,225
2017-08-23T13:32:38.582Z,220
2017-08-23T13:33:38.583Z,220
2017-08-23T13:34:38.234Z,220
2017-08-23T13:35:38.532Z,220
2017-08-23T13:36:38.509Z,220
2017-08-23T13:37:38.486Z,215
2017-08-23T13:38:38.182Z,215
2017-08-23T13:39:38.567Z,215
2017-08-23T13:40:38.446Z,210
2017-08-23T13:41:38.423Z,215
2017-08-23T13:42:38.429Z,215
2017-08-23T13:43:38.136Z,225
2017-08-23T13:44:38.070Z,230
2017-08-23T13:45:38.068Z,235
2017-08-23T13:46:38.351Z,240
2017-08-23T13:47:38.324Z,245
2017-08-23T13:48:38.050Z,255
2017-08-23T13:49:38.296Z,260
2017-08-23T13:50:38.343Z,265
2017-08-23T13:51:37.953Z,275
2017-08-23T13:52:38.512Z,280
2017-08-23T13:53:37.914Z,285
2017-08-23T13:54:38.203Z,285
2017-08-23T13:55:37.892Z,290
2017-08-23T13:56:37.872Z,290
2017-08-23T13:57:37.845Z,290
2017-08-23T13:58:38.198Z,290
2017-08-23T13:59:38.161Z,290
2017-08-23T14:00:38.128Z,295
2017-08-23T14:01:38.080Z,295
2017-08-23T14:02:37.821Z,290